createdAt,value
2019-05-17T00:01:57.766Z,94.40
2019-05-17T00:04:32.697Z,94.40
2019-05-17T00:07:07.560Z,94.60
2019-05-17T00:09:42.248Z,94.70
2019-05-17T00:12:17.148Z,94.60
2019-05-17T00:14:51.846Z,94.40
2019-05-17T00:17:26.809Z,94.70
2019-05-17T00:20:01.728Z,94.60
2019-05-17T00:22:36.825Z,94.50
2019-05-17T00:25:11.818Z,94.70
2019-05-17T00:27:47.408Z,94.90
2019-05-17T00:30:22.674Z,95.10
2019-05-17T00:32:57.479Z,95.00
2019-05-17T00:35:32.238Z,95.10
2019-05-17T00:38:07.337Z,95.30
2019-05-17T00:40:42.086Z,95.30
2019-05-17T00:43:17.160Z,95.50
2019-05-17T00:46:11.229Z,95.40
2019-05-17T00:48:46.633Z,95.50
2019-05-17T00:51:21.487Z,95.60
2019-05-17T00:53:56.334Z,95.60
2019-05-17T00:56:31.065Z,95.70
2019-05-17T00:59:07.455Z,95.70
2019-05-17T01:01:42.433Z,95.80
2019-05-17T01:04:17.467Z,95.80
2019-05-17T01:06:52.311Z,95.90
2019-05-17T01:09:27.410Z,95.80
2019-05-17T01:12:02.303Z,95.70
2019-05-17T01:14:37.396Z,95.40
2019-05-17T01:17:12.263Z,95.40
2019-05-17T01:19:47.331Z,95.60
2019-05-17T01:22:22.228Z,95.80
2019-05-17T01:24:57.056Z,95.70
2019-05-17T01:27:31.694Z,95.70
2019-05-17T01:30:07.923Z,95.90
2019-05-17T01:32:42.583Z,96.00
2019-05-17T01:35:17.346Z,96.10
2019-05-17T01:37:52.066Z,96.10
2019-05-17T01:40:26.753Z,96.00
2019-05-17T01:43:02.725Z,95.80
2019-05-17T01:45:37.536Z,95.70
2019-05-17T01:48:12.259Z,95.70
2019-05-17T01:50:47.025Z,95.80
2019-05-17T01:53:21.814Z,95.60
2019-05-17T01:55:56.913Z,95.60
2019-05-17T01:58:31.791Z,95.60
2019-05-17T02:01:07.687Z,95.70
2019-05-17T02:03:42.714Z,96.00
2019-05-17T02:06:17.473Z,95.80
2019-05-17T02:08:52.579Z,95.90
2019-05-17T02:11:27.338Z,96.20
2019-05-17T02:14:02.133Z,96.20
2019-05-17T02:16:37.696Z,96.20
2019-05-17T02:19:12.620Z,96.10
2019-05-17T02:21:47.896Z,96.30
2019-05-17T02:24:22.986Z,96.30
2019-05-17T02:26:57.660Z,96.10
2019-05-17T02:29:32.449Z,96.10
2019-05-17T02:32:07.308Z,96.10
2019-05-17T02:34:43.100Z,96.30
2019-05-17T02:37:17.945Z,96.40
2019-05-17T02:40:02.404Z,96.70
2019-05-17T02:42:29.218Z,96.80
2019-05-17T02:45:04.674Z,96.90
2019-05-17T02:47:43.074Z,97.00
2019-05-17T02:50:17.149Z,97.00
2019-05-17T02:52:52.844Z,97.10
2019-05-17T02:55:27.727Z,97.10
2019-05-17T02:58:03.407Z,97.00
2019-05-17T03:00:38.480Z,96.70
2019-05-17T03:03:13.573Z,96.50
2019-05-17T03:05:48.556Z,96.20
2019-05-17T03:08:23.759Z,95.90
2019-05-17T03:10:58.671Z,95.90
2019-05-17T03:13:33.439Z,95.90
2019-05-17T03:16:08.155Z,95.70
2019-05-17T03:18:43.813Z,95.90
2019-05-17T03:21:18.803Z,95.90
2019-05-17T03:23:53.963Z,95.90
2019-05-17T03:26:28.929Z,95.80
2019-05-17T03:29:03.665Z,95.80
2019-05-17T03:31:44.740Z,95.50
2019-05-17T03:34:17.389Z,95.40
2019-05-17T03:36:56.322Z,95.30
2019-05-17T03:39:28.765Z,95.60
2019-05-17T03:42:03.633Z,95.40
2019-05-17T03:44:38.394Z,95.40
2019-05-17T03:47:13.262Z,95.30
2019-05-17T03:49:47.951Z,95.20
2019-05-17T03:52:22.678Z,95.00
2019-05-17T03:54:57.429Z,94.90
2019-05-17T03:57:32.527Z,94.90
2019-05-17T04:00:08.388Z,94.90
2019-05-17T04:02:44.302Z,94.90
2019-05-17T04:05:22.446Z,94.30
2019-05-17T04:07:55.976Z,93.70
2019-05-17T04:10:33.380Z,93.30
2019-05-17T04:13:07.176Z,93.10
2019-05-17T04:15:43.303Z,93.20
2019-05-17T04:18:18.363Z,92.90
2019-05-17T04:20:53.155Z,93.00
2019-05-17T04:23:27.924Z,93.00
2019-05-17T04:26:04.144Z,93.00
2019-05-17T04:28:39.112Z,92.50
2019-05-17T04:31:13.889Z,91.90
2019-05-17T04:33:48.617Z,91.30
2019-05-17T04:36:23.442Z,90.90
2019-05-17T04:38:58.171Z,90.20
2019-05-17T04:41:45.077Z,90.00
2019-05-17T04:44:09.367Z,90.00
2019-05-17T04:46:43.995Z,90.30
2019-05-17T04:49:18.809Z,89.60
2019-05-17T04:51:54.076Z,89.50
2019-05-17T04:54:28.792Z,90.00
2019-05-17T04:57:03.494Z,88.70
2019-05-17T04:59:38.301Z,87.30
2019-05-17T05:02:13.328Z,86.90
2019-05-17T05:04:48.260Z,83.60
2019-05-17T05:07:23.105Z,82.70
2019-05-17T05:09:57.842Z,82.40
2019-05-17T05:12:33.893Z,78.20
2019-05-17T05:15:12.042Z,79.50
2019-05-17T05:17:45.699Z,77.10
2019-05-17T05:20:22.148Z,74.50
2019-05-17T05:22:57.010Z,72.10
2019-05-17T05:25:32.310Z,70.60
2019-05-17T05:28:07.175Z,69.20
2019-05-17T05:30:42.419Z,70.40
2019-05-17T05:33:17.204Z,67.60
2019-05-17T05:35:51.936Z,64.20
2019-05-17T05:38:26.770Z,64.40
2019-05-17T05:41:02.010Z,61.60
2019-05-17T05:43:36.782Z,61.30
2019-05-17T05:46:11.754Z,62.00
2019-05-17T05:48:46.598Z,62.50
2019-05-17T05:51:21.702Z,63.10
2019-05-17T05:53:56.404Z,61.40
2019-05-17T05:56:32.676Z,61.40
2019-05-17T05:59:07.593Z,60.40
2019-05-17T06:01:42.426Z,59.30
2019-05-17T06:04:17.174Z,58.40
2019-05-17T06:06:52.280Z,56.50
2019-05-17T06:09:27.122Z,57.50
2019-05-17T06:12:02.422Z,59.20
2019-05-17T06:14:37.235Z,55.70
2019-05-17T06:17:12.594Z,56.20
2019-05-17T06:19:47.559Z,57.00
2019-05-17T06:22:22.532Z,56.90
2019-05-17T06:24:57.239Z,57.30
2019-05-17T06:27:32.144Z,58.20
2019-05-17T06:30:06.956Z,58.80
2019-05-17T06:32:43.359Z,58.40
2019-05-17T06:35:18.392Z,60.20
2019-05-17T06:37:53.558Z,60.50
2019-05-17T06:40:28.430Z,59.40
2019-05-17T06:43:04.252Z,59.70
2019-05-17T06:45:41.664Z,61.40
2019-05-17T06:48:15.699Z,59.20
2019-05-17T06:50:51.959Z,58.00
2019-05-17T06:53:26.975Z,60.40
2019-05-17T06:56:02.716Z,59.80
2019-05-17T06:58:37.762Z,61.70
2019-05-17T07:01:12.561Z,61.70
2019-05-17T07:03:49.430Z,62.50
2019-05-17T07:06:25.177Z,62.60
2019-05-17T07:09:00.978Z,62.10
2019-05-17T07:11:35.759Z,60.70
2019-05-17T07:14:10.476Z,61.50
2019-05-17T07:16:45.097Z,62.60
2019-05-17T07:19:19.887Z,58.80
2019-05-17T07:21:54.503Z,57.80
2019-05-17T07:24:30.026Z,58.80
2019-05-17T07:27:04.846Z,59.00
2019-05-17T07:29:40.347Z,58.50
2019-05-17T07:32:15.300Z,60.20
2019-05-17T07:34:50.750Z,59.50
2019-05-17T07:37:25.565Z,61.70
2019-05-17T07:40:04.817Z,62.70
2019-05-17T07:42:36.638Z,63.40
2019-05-17T07:45:11.689Z,59.90
2019-05-17T07:47:49.113Z,58.10
2019-05-17T07:50:23.928Z,57.50
2019-05-17T07:53:00.622Z,58.90
2019-05-17T07:55:35.100Z,58.80
2019-05-17T07:58:10.661Z,59.70
2019-05-17T08:00:45.446Z,58.00
2019-05-17T08:03:24.554Z,56.60
2019-05-17T08:05:59.903Z,55.50
2019-05-17T08:08:33.943Z,56.60
2019-05-17T08:11:10.600Z,55.90
2019-05-17T08:13:45.057Z,56.50
2019-05-17T08:16:19.842Z,56.00
2019-05-17T08:18:54.604Z,56.60
2019-05-17T08:21:30.520Z,57.90
2019-05-17T08:24:05.355Z,58.40
2019-05-17T08:26:40.497Z,59.20
2019-05-17T08:29:15.254Z,60.40
2019-05-17T08:31:50.039Z,58.80
2019-05-17T08:34:24.725Z,57.90
2019-05-17T08:37:01.066Z,57.40
2019-05-17T08:39:35.804Z,56.10
2019-05-17T08:42:10.621Z,58.40
2019-05-17T08:44:45.386Z,58.60
2019-05-17T08:47:20.874Z,60.40
2019-05-17T08:49:55.866Z,61.00
2019-05-17T08:52:30.602Z,60.10
2019-05-17T08:55:09.469Z,60.10
2019-05-17T08:57:43.303Z,61.00
2019-05-17T09:00:20.696Z,58.10
2019-05-17T09:02:55.843Z,59.10
2019-05-17T09:05:30.491Z,58.50
2019-05-17T09:08:05.282Z,58.60
2019-05-17T09:10:41.021Z,58.30
2019-05-17T09:13:15.828Z,56.70
2019-05-17T09:15:50.516Z,57.70
2019-05-17T09:18:25.301Z,56.50
2019-05-17T09:21:00.487Z,57.40
2019-05-17T09:23:35.402Z,57.30
2019-05-17T09:26:10.202Z,55.70
2019-05-17T09:28:44.892Z,55.80
2019-05-17T09:31:20.373Z,56.60
2019-05-17T09:33:55.319Z,57.90
2019-05-17T09:36:30.452Z,59.20
2019-05-17T09:39:09.318Z,59.20
2019-05-17T09:41:43.745Z,59.10
2019-05-17T09:44:20.555Z,60.90
2019-05-17T09:46:54.845Z,60.70
2019-05-17T09:49:29.978Z,59.70
2019-05-17T09:52:04.898Z,59.50
2019-05-17T09:54:45.126Z,58.60
2019-05-17T09:57:16.001Z,59.20
2019-05-17T09:59:51.288Z,59.50
2019-05-17T10:02:26.052Z,58.50
2019-05-17T10:05:00.717Z,59.60
2019-05-17T10:07:35.296Z,61.00
2019-05-17T10:10:10.748Z,61.20
2019-05-17T10:12:45.541Z,59.20
2019-05-17T10:15:20.854Z,59.80
2019-05-17T10:17:55.629Z,54.50
2019-05-17T10:20:30.447Z,53.60
2019-05-17T10:23:05.199Z,56.00
2019-05-17T10:25:40.487Z,55.40
2019-05-17T10:28:15.224Z,56.40
2019-05-17T10:30:52.259Z,57.00
2019-05-17T10:33:26.401Z,55.80
2019-05-17T10:36:01.191Z,56.20
2019-05-17T10:38:35.906Z,56.30
2019-05-17T10:41:10.697Z,57.50
2019-05-17T10:43:45.544Z,58.30
2019-05-17T10:46:20.708Z,56.50
2019-05-17T10:48:55.538Z,57.70
2019-05-17T10:51:30.330Z,56.70
2019-05-17T10:54:05.122Z,58.60
2019-05-17T10:56:39.867Z,58.10
2019-05-17T10:59:14.584Z,54.80
2019-05-17T11:01:50.202Z,54.10
2019-05-17T11:04:25.160Z,55.90
2019-05-17T11:06:59.952Z,55.70
2019-05-17T11:09:34.564Z,55.80
2019-05-17T11:12:09.284Z,57.00
2019-05-17T11:14:55.932Z,58.40
2019-05-17T11:17:20.298Z,57.00
2019-05-17T11:19:55.318Z,56.80
2019-05-17T11:22:30.041Z,55.60
2019-05-17T11:25:06.503Z,55.60
2019-05-17T11:27:41.155Z,54.80
2019-05-17T11:30:16.417Z,55.50
2019-05-17T11:32:51.257Z,55.60
2019-05-17T11:35:28.053Z,58.20
2019-05-17T11:38:02.951Z,57.10
2019-05-17T11:40:37.707Z,57.30
2019-05-17T11:43:12.468Z,56.90
2019-05-17T11:45:47.223Z,55.90
2019-05-17T11:48:21.864Z,55.30
2019-05-17T11:50:56.491Z,56.30
2019-05-17T11:53:31.274Z,56.30
2019-05-17T11:56:06.034Z,56.60
2019-05-17T11:58:40.767Z,57.60
2019-05-17T12:01:15.530Z,56.20
2019-05-17T12:03:50.327Z,57.10
2019-05-17T12:06:25.018Z,56.90
2019-05-17T12:08:59.736Z,57.90
2019-05-17T12:11:34.422Z,57.60
2019-05-17T12:14:09.405Z,58.40
2019-05-17T12:16:44.147Z,61.90
2019-05-17T12:19:18.944Z,59.50
2019-05-17T12:21:53.706Z,61.30
2019-05-17T12:24:28.415Z,63.10
2019-05-17T12:27:03.291Z,61.70
2019-05-17T12:29:38.086Z,63.70
2019-05-17T12:32:16.912Z,61.30
2019-05-17T12:34:49.110Z,58.50
2019-05-17T12:37:23.806Z,58.60
2019-05-17T12:39:58.527Z,58.80
2019-05-17T12:42:33.335Z,58.20
2019-05-17T12:45:08.547Z,58.90
2019-05-17T12:47:43.168Z,57.60
2019-05-17T12:50:17.944Z,59.60
2019-05-17T12:52:52.629Z,60.60
2019-05-17T12:55:27.428Z,59.90
2019-05-17T12:58:02.300Z,60.60
2019-05-17T13:00:37.126Z,59.60
2019-05-17T13:03:11.815Z,61.20
2019-05-17T13:05:46.538Z,59.10
2019-05-17T13:08:21.228Z,61.90
2019-05-17T13:10:56.205Z,58.00
2019-05-17T13:13:30.879Z,59.50
2019-05-17T13:16:17.346Z,58.40
2019-05-17T13:18:41.934Z,58.80
2019-05-17T13:21:16.706Z,59.40
2019-05-17T13:23:51.529Z,58.70
2019-05-17T13:26:26.330Z,59.10
2019-05-17T13:29:01.070Z,58.60
2019-05-17T13:31:35.870Z,57.50
2019-05-17T13:34:10.522Z,57.30
2019-05-17T13:36:45.183Z,59.60
2019-05-17T13:39:19.910Z,59.80
2019-05-17T13:41:54.605Z,61.00
2019-05-17T13:44:29.297Z,62.20
2019-05-17T13:47:04.082Z,61.10
2019-05-17T13:49:38.860Z,61.10
2019-05-17T13:52:22.841Z,61.40
2019-05-17T13:54:57.591Z,61.60
2019-05-17T13:57:32.328Z,61.60
2019-05-17T14:00:08.242Z,62.00
2019-05-17T14:02:42.976Z,64.10
2019-05-17T14:05:17.896Z,63.50
2019-05-17T14:07:52.638Z,61.00
2019-05-17T14:10:31.516Z,62.20
2019-05-17T14:13:03.860Z,60.70
2019-05-17T14:15:38.565Z,60.50
2019-05-17T14:18:13.218Z,59.80
2019-05-17T14:20:47.916Z,61.70
2019-05-17T14:23:22.637Z,63.30
2019-05-17T14:25:57.451Z,64.10
2019-05-17T14:28:32.250Z,63.00
2019-05-17T14:31:07.148Z,62.30
2019-05-17T14:33:41.888Z,63.10
2019-05-17T14:36:16.664Z,63.70
2019-05-17T14:38:51.478Z,64.20
2019-05-17T14:41:26.168Z,63.70
2019-05-17T14:44:00.832Z,63.30
2019-05-17T14:46:35.582Z,62.90
2019-05-17T14:49:10.393Z,63.30
2019-05-17T14:51:45.084Z,64.60
2019-05-17T14:54:19.866Z,64.80
2019-05-17T14:56:54.505Z,65.70
2019-05-17T14:59:29.228Z,65.10
2019-05-17T15:02:04.071Z,64.70
2019-05-17T15:04:38.816Z,64.60
2019-05-17T15:07:13.559Z,65.40
2019-05-17T15:09:48.991Z,65.20
2019-05-17T15:12:28.471Z,65.80
2019-05-17T15:15:00.017Z,66.00
2019-05-17T15:17:35.409Z,65.60
2019-05-17T15:20:10.365Z,65.40
2019-05-17T15:22:45.126Z,65.60
2019-05-17T15:25:19.882Z,66.40
2019-05-17T15:27:54.586Z,66.60
2019-05-17T15:30:29.320Z,65.70
2019-05-17T15:33:04.085Z,65.90
2019-05-17T15:35:38.815Z,65.40
2019-05-17T15:38:13.591Z,66.40
2019-05-17T15:40:48.397Z,66.50
2019-05-17T15:43:23.189Z,66.90
2019-05-17T15:45:57.917Z,66.50
2019-05-17T15:48:32.544Z,65.90
2019-05-17T15:51:08.820Z,65.90
2019-05-17T15:53:43.588Z,66.30
2019-05-17T15:56:18.381Z,67.00
2019-05-17T15:58:53.213Z,67.40
2019-05-17T16:01:27.999Z,67.30
2019-05-17T16:04:04.441Z,68.20
2019-05-17T16:06:39.302Z,67.70
2019-05-17T16:09:14.041Z,68.50
2019-05-17T16:11:48.814Z,67.00
2019-05-17T16:14:24.533Z,66.30
2019-05-17T16:16:59.231Z,67.20
2019-05-17T16:19:33.954Z,67.90
2019-05-17T16:22:08.757Z,67.70
2019-05-17T16:24:43.507Z,68.30
2019-05-17T16:27:18.308Z,67.70
2019-05-17T16:29:53.063Z,68.10
2019-05-17T16:32:27.786Z,67.60
2019-05-17T16:35:02.599Z,68.20
2019-05-17T16:37:37.285Z,68.40
2019-05-17T16:40:12.164Z,69.10
2019-05-17T16:42:46.962Z,68.70
2019-05-17T16:45:22.786Z,69.10
2019-05-17T16:47:57.583Z,69.10
2019-05-17T16:50:32.354Z,68.90
2019-05-17T16:53:07.480Z,69.40
2019-05-17T16:55:42.232Z,69.40
2019-05-17T16:58:16.985Z,70.10
2019-05-17T17:00:51.816Z,69.70
2019-05-17T17:03:34.805Z,70.00
2019-05-17T17:06:03.110Z,69.20
2019-05-17T17:08:38.414Z,69.70
2019-05-17T17:11:13.190Z,70.90
2019-05-17T17:13:47.963Z,69.70
2019-05-17T17:16:22.627Z,70.50
2019-05-17T17:18:57.423Z,71.10
2019-05-17T17:21:32.196Z,71.00
2019-05-17T17:24:07.019Z,71.30
2019-05-17T17:26:41.653Z,71.60
2019-05-17T17:29:16.608Z,71.50
2019-05-17T17:31:51.237Z,71.30
2019-05-17T17:34:25.989Z,72.20
2019-05-17T17:37:00.747Z,71.90
2019-05-17T17:39:35.577Z,71.70
2019-05-17T17:42:10.363Z,72.50
2019-05-17T17:44:45.162Z,72.70
2019-05-17T17:47:19.866Z,73.30
2019-05-17T17:49:54.604Z,72.90
2019-05-17T17:52:29.370Z,72.80
2019-05-17T17:55:05.471Z,73.90
2019-05-17T17:57:41.613Z,72.90
2019-05-17T18:00:18.475Z,73.60
2019-05-17T18:02:53.239Z,73.90
2019-05-17T18:05:28.052Z,73.40
2019-05-17T18:08:02.957Z,73.90
2019-05-17T18:10:37.785Z,74.30
2019-05-17T18:13:12.626Z,74.30
2019-05-17T18:15:50.487Z,74.70
2019-05-17T18:18:25.342Z,75.00
2019-05-17T18:21:00.164Z,75.60
2019-05-17T18:23:34.908Z,75.70
2019-05-17T18:26:09.673Z,76.40
2019-05-17T18:28:44.439Z,76.70
2019-05-17T18:31:19.160Z,77.30
2019-05-17T18:33:53.937Z,77.50
2019-05-17T18:36:29.745Z,78.00
2019-05-17T18:39:06.393Z,79.00
2019-05-17T18:41:41.205Z,78.70
2019-05-17T18:44:27.164Z,78.90
2019-05-17T18:46:52.435Z,79.80
2019-05-17T18:49:27.183Z,79.70
2019-05-17T18:52:01.993Z,79.50
2019-05-17T18:54:36.823Z,79.70
2019-05-17T18:57:11.688Z,80.00
2019-05-17T18:59:46.390Z,80.60
2019-05-17T19:02:21.195Z,80.90
2019-05-17T19:04:55.963Z,81.40
2019-05-17T19:07:30.766Z,82.00
2019-05-17T19:10:07.609Z,82.80
2019-05-17T19:12:42.413Z,82.60
2019-05-17T19:15:18.090Z,83.20
2019-05-17T19:17:52.891Z,84.20
2019-05-17T19:20:27.585Z,84.40
2019-05-17T19:23:02.372Z,84.30
2019-05-17T19:25:37.110Z,84.00
2019-05-17T19:28:11.904Z,83.90
2019-05-17T19:30:46.741Z,84.20
2019-05-17T19:33:21.471Z,84.10
2019-05-17T19:35:56.318Z,84.00
2019-05-17T19:38:31.108Z,84.30
2019-05-17T19:41:05.881Z,84.50
2019-05-17T19:43:40.603Z,84.50
2019-05-17T19:46:15.374Z,84.60
2019-05-17T19:48:50.103Z,85.00
2019-05-17T19:51:24.879Z,84.90
2019-05-17T19:53:59.659Z,84.70
2019-05-17T19:56:34.369Z,85.10
2019-05-17T19:59:09.927Z,85.20
2019-05-17T20:01:44.641Z,85.20
2019-05-17T20:04:19.396Z,84.90
2019-05-17T20:06:54.219Z,84.90
2019-05-17T20:09:28.931Z,85.00
2019-05-17T20:12:03.680Z,86.20
2019-05-17T20:14:38.512Z,86.00
2019-05-17T20:17:13.299Z,85.60
2019-05-17T20:19:48.037Z,85.90
2019-05-17T20:22:22.824Z,86.60
2019-05-17T20:25:17.191Z,85.90
2019-05-17T20:27:51.827Z,86.00
2019-05-17T20:30:26.632Z,86.70
2019-05-17T20:33:01.395Z,87.30
2019-05-17T20:35:36.231Z,87.80
2019-05-17T20:38:11.077Z,88.20
2019-05-17T20:40:45.888Z,87.90
2019-05-17T20:43:20.655Z,87.70
2019-05-17T20:45:55.387Z,87.60
2019-05-17T20:48:30.038Z,87.60
2019-05-17T20:51:04.943Z,88.20
2019-05-17T20:53:39.928Z,88.40
2019-05-17T20:56:14.720Z,88.00
2019-05-17T20:58:49.347Z,88.10
2019-05-17T21:01:24.287Z,88.30
2019-05-17T21:03:59.060Z,88.10
2019-05-17T21:06:33.860Z,88.30
2019-05-17T21:09:08.718Z,88.70
2019-05-17T21:11:43.453Z,88.30
2019-05-17T21:14:18.227Z,88.20
2019-05-17T21:16:53.038Z,88.20
2019-05-17T21:19:27.739Z,88.90
2019-05-17T21:22:02.563Z,89.10
2019-05-17T21:24:37.338Z,89.30
2019-05-17T21:27:12.029Z,89.40
2019-05-17T21:29:46.755Z,89.40
2019-05-17T21:32:21.559Z,89.80
2019-05-17T21:34:56.323Z,90.00
2019-05-17T21:37:31.122Z,90.00
2019-05-17T21:40:09.517Z,89.70
2019-05-17T21:42:44.167Z,89.70
2019-05-17T21:45:18.943Z,89.60
2019-05-17T21:47:53.611Z,89.70
2019-05-17T21:50:28.367Z,89.50
2019-05-17T21:53:03.103Z,89.50
2019-05-17T21:55:37.801Z,89.30
2019-05-17T21:58:12.605Z,89.20
2019-05-17T22:00:51.955Z,89.50
2019-05-17T22:03:26.683Z,90.30
2019-05-17T22:06:01.307Z,90.00
2019-05-17T22:08:36.056Z,90.00
2019-05-17T22:11:10.799Z,90.10
2019-05-17T22:13:45.617Z,90.20
2019-05-17T22:16:20.479Z,90.40
2019-05-17T22:18:55.181Z,90.40
2019-05-17T22:21:29.912Z,90.50
2019-05-17T22:24:04.732Z,90.40
2019-05-17T22:26:39.422Z,90.30
2019-05-17T22:29:14.229Z,90.40
2019-05-17T22:31:48.998Z,90.20
2019-05-17T22:34:23.747Z,90.10
2019-05-17T22:36:58.507Z,90.40
2019-05-17T22:39:33.303Z,90.50
2019-05-17T22:42:08.019Z,90.60
2019-05-17T22:44:42.676Z,90.70
2019-05-17T22:47:17.371Z,90.50
2019-05-17T22:49:52.093Z,90.60
2019-05-17T22:52:26.799Z,90.80
2019-05-17T22:55:01.543Z,91.00
2019-05-17T22:57:36.308Z,91.50
2019-05-17T23:00:11.590Z,91.30
2019-05-17T23:02:46.285Z,91.30
2019-05-17T23:05:25.849Z,91.50
2019-05-17T23:07:57.512Z,91.00
2019-05-17T23:10:35.060Z,91.10
2019-05-17T23:13:08.629Z,91.80
2019-05-17T23:15:45.074Z,92.10
2019-05-17T23:18:19.756Z,92.30
2019-05-17T23:20:54.550Z,92.40
2019-05-17T23:23:29.813Z,92.40
2019-05-17T23:26:04.608Z,92.40
2019-05-17T23:28:39.303Z,92.40
2019-05-17T23:31:14.063Z,92.10
2019-05-17T23:33:48.666Z,91.90
2019-05-17T23:36:23.470Z,91.60
2019-05-17T23:38:58.266Z,91.90
2019-05-17T23:41:33.075Z,91.80
2019-05-17T23:44:07.841Z,92.10
2019-05-17T23:46:42.531Z,92.30
2019-05-17T23:49:17.298Z,92.40
2019-05-17T23:51:52.034Z,91.90
2019-05-17T23:54:26.740Z,92.30
2019-05-17T23:57:01.465Z,92.50
2019-05-17T23:59:36.162Z,92.30
